Flight Track Log - Related Links

Times and Time Zones

All times are in EDT time to prevent confusion due to time zone crossing. See the N5FG flight status page for this flight to view local times or setup timezone preferences in your user account.

Time Position Orientation Groundspeed Altitude Reporting Facility
EDT Latitude Longitude Course Direction KTS MPH feet Rate Location/Type
Mon 03:19:46 PM 46.4714 -90.8425 151° Southeast 167 192 5,000  Level Minneapolis Center
Mon 03:20:48 PM 46.4239 -90.8036 151° Southeast 163 188 6,100 927 Climbing Minneapolis Center
Mon 03:21:49 PM 46.3878 -90.7669 145° Southeast 161 185 6,900 829 Climbing Minneapolis Center
Mon 03:22:51 PM 46.3494 -90.7272 144° Southeast 165 190 7,800 823 Climbing Minneapolis Center
Mon 03:23:53 PM 46.3064 -90.6889 148° Southeast 171 197 8,600 629 Climbing Minneapolis Center
Mon 03:24:55 PM 46.2631 -90.6483 147° Southeast 179 206 9,100 242 Climbing Minneapolis Center
Mon 03:25:00 PM 46.2571 -90.6865 151° Southeast  Level Estimated
Mon 03:25:57 PM 46.2150 -90.6031 147° Southeast 190 219 9,100  Level Minneapolis Center
Mon 03:26:59 PM 46.1653 -90.5564 147° Southeast 202 232 9,100  Level Minneapolis Center
Mon 03:28:00 PM 46.1061 -90.5008 147° Southeast 209 241 9,100  Level Minneapolis Center
Mon 03:29:02 PM 46.0558 -90.4550 148° Southeast 211 243 9,100  Level Minneapolis Center
Mon 03:30:04 PM 46.0075 -90.4089 146° Southeast 212 244 9,100  Level Minneapolis Center
Mon 03:31:06 PM 45.9561 -90.3614 147° Southeast 214 246 9,100  Level Minneapolis Center
Mon 03:32:07 PM 45.9075 -90.3147 146° Southeast 213 245 9,100  Level Minneapolis Center
Mon 03:33:09 PM 45.8578 -90.2706 148° Southeast 213 245 9,100  Level Minneapolis Center
Mon 03:34:11 PM 45.7975 -90.2147 147° Southeast 213 245 9,100  Level Minneapolis Center
Mon 03:35:13 PM 45.7475 -90.1697 148° Southeast 213 245 9,100  Level Minneapolis Center
Mon 03:36:15 PM 45.6983 -90.1233 147° Southeast 213 245 9,100  Level Minneapolis Center
Mon 03:37:17 PM 45.6481 -90.0778 148° Southeast 213 245 9,100  Level Minneapolis Center
Mon 03:38:19 PM 45.5989 -90.0331 148° Southeast 212 244 9,100  Level Minneapolis Center
Mon 03:39:20 PM 45.5508 -89.9886 147° Southeast 210 242 9,100  Level Minneapolis Center
Mon 03:40:22 PM 45.5014 -89.9436 147° Southeast 210 242 9,100  Level Minneapolis Center
Mon 03:41:24 PM 45.4414 -89.8883 147° Southeast 212 244 9,100  Level Minneapolis Center
Mon 03:42:26 PM 45.3922 -89.8433 147° Southeast 212 244 9,100  Level Minneapolis Center
Mon 03:43:28 PM 45.3422 -89.7994 148° Southeast 212 244 9,100  Level Minneapolis Center
Mon 03:44:30 PM 45.2936 -89.7533 146° Southeast 211 243 9,100  Level Minneapolis Center
Mon 03:45:31 PM 45.2447 -89.7086 147° Southeast 210 242 9,100  Level Minneapolis Center
Mon 03:46:33 PM 45.1950 -89.6661 149° Southeast 210 242 9,100  Level Minneapolis Center
Mon 03:47:35 PM 45.1364 -89.6111 146° Southeast 210 242 9,100  Level Minneapolis Center
Mon 03:48:37 PM 45.0875 -89.5667 147° Southeast 210 242 9,100  Level Minneapolis Center
Mon 03:49:39 PM 45.0361 -89.5242 150° Southeast 210 242 9,100  Level Minneapolis Center
Mon 03:50:41 PM 44.9839 -89.4806 149° Southeast 210 242 9,100  Level Minneapolis Center
Mon 03:51:43 PM 44.9333 -89.4325 146° Southeast 209 241 9,100  Level Minneapolis Center
Mon 03:52:45 PM 44.8822 -89.3875 148° Southeast 209 241 9,100  Level Minneapolis Center
Mon 03:53:47 PM 44.8347 -89.3417 146° Southeast 209 241 9,100  Level Minneapolis Center
Mon 03:54:48 PM 44.7839 -89.2989 149° Southeast 209 241 9,100  Level Minneapolis Center
Mon 03:55:50 PM 44.7331 -89.2542 148° Southeast 207 238 9,100  Level Minneapolis Center
Mon 03:56:52 PM 44.6808 -89.2086 148° Southeast 211 243 9,100  Level Minneapolis Center
Mon 03:57:54 PM 44.6344 -89.1669 147° Southeast 207 238 9,100  Level Minneapolis Center
Mon 03:58:56 PM 44.5833 -89.1228 148° Southeast 208 239 9,100  Level Minneapolis Center
Mon 03:59:58 PM 44.5328 -89.0778 148° Southeast 206 237 9,100 -48 Level Minneapolis Center
Mon 04:01:00 PM 44.4825 -89.0336 148° Southeast 206 237 9,000 -48 Descending Minneapolis Center
Mon 04:02:02 PM 44.4342 -88.9872 146° Southeast 209 241 9,000 49 Level Minneapolis Center
Mon 04:03:03 PM 44.3858 -88.9461 149° Southeast 206 237 9,100 49 Climbing Minneapolis Center
Mon 04:04:05 PM 44.3364 -88.9025 148° Southeast 208 239 9,100  Level Minneapolis Center
Mon 04:05:07 PM 44.2864 -88.8617 150° Southeast 209 241 9,100  Level Minneapolis Center
Mon 04:06:09 PM 44.2283 -88.8103 148° Southeast 208 239 9,100  Level Minneapolis Center
Mon 04:07:11 PM 44.1792 -88.7669 148° Southeast 209 241 9,100  Level Minneapolis Center
Mon 04:08:13 PM 44.1308 -88.7233 147° Southeast 208 239 9,100  Level Minneapolis Center
Mon 04:08:56 PM 44.1014 -88.7006 151° Southeast 208 239 9,100  Level Chicago Center
Mon 04:09:58 PM 44.0425 -88.6506 149° Southeast 207 238 9,100  Level Chicago Center
Mon 04:11:00 PM 43.9933 -88.6092 149° Southeast 207 238 9,100  Level Chicago Center
Mon 04:12:02 PM 43.9447 -88.5658 147° Southeast 207 238 9,100  Level Chicago Center
Mon 04:13:04 PM 43.8950 -88.5247 149° Southeast 208 239 9,100  Level Chicago Center
Mon 04:14:06 PM 43.8456 -88.4828 149° Southeast 208 239 9,100  Level Chicago Center
Mon 04:15:08 PM 43.7958 -88.4406 148° Southeast 209 241 9,100  Level Chicago Center
Mon 04:16:10 PM 43.7356 -88.3892 148° Southeast 210 242 9,100  Level Chicago Center
Mon 04:17:12 PM 43.6850 -88.3458 148° Southeast 212 244 9,100  Level Chicago Center
Mon 04:18:14 PM 43.6347 -88.3025 148° Southeast 213 245 9,100  Level Chicago Center
Mon 04:19:16 PM 43.5831 -88.2600 149° Southeast 215 247 9,100  Level Chicago Center
Mon 04:20:18 PM 43.5322 -88.2178 149° Southeast 212 244 9,100  Level Chicago Center
Mon 04:21:21 PM 43.4792 -88.1853 156° South 208 239 9,100  Level Chicago Center
Mon 04:22:23 PM 43.4222 -88.1733 171° South 206 237 9,100 -97 Level Chicago Center
Mon 04:23:25 PM 43.3536 -88.1511 167° South 209 241 8,900 -339 Descending Chicago Center
Mon 04:24:27 PM 43.2958 -88.1328 167° South 214 246 8,400 -629 Descending Chicago Center
Mon 04:25:29 PM 43.2358 -88.1139 167° South 218 251 7,600 -629 Descending Chicago Center
Mon 04:26:31 PM 43.1758 -88.0964 168° South 220 253 7,100 -581 Descending Chicago Center
Mon 04:27:33 PM 43.1167 -88.0769 167° South 219 252 6,400 -532 Descending Chicago Center
Mon 04:28:35 PM 43.0608 -88.0600 167° South 211 243 6,000 -145 Descending Chicago Center
Mon 04:29:37 PM 43.0089 -88.0450 168° South 197 227 6,100 48 Climbing Chicago Center
Mon 04:30:39 PM 42.9483 -88.0281 168° South 189 217 6,100 -48 Level Chicago Center
Mon 04:31:41 PM 42.8975 -88.0117 167° South 186 214 6,000 -48 Descending Chicago Center
Mon 04:32:43 PM 42.8461 -87.9944 166° South 189 217 6,000 -288 Level Chicago Center
Mon 04:33:46 PM 42.7939 -87.9806 169° South 191 220 5,400 -624 Descending Chicago Center
Mon 04:34:48 PM 42.7408 -87.9653 168° South 194 223 4,700 -629 Descending Chicago Center
Mon 04:35:50 PM 42.6897 -87.9489 167° South 192 221 4,100 -339 Descending Chicago Center
Mon 04:36:52 PM 42.6347 -87.9264 163° South 182 209 4,000 -48 Descending Chicago Center
Mon 04:37:54 PM 42.5950 -87.8989 153° Southeast 167 192 4,000 -48 Level Chicago Center
Mon 04:38:56 PM 42.5544 -87.8767 158° South 159 183 3,900 -484 Descending Chicago Center
Mon 04:39:58 PM 42.5094 -87.8553 161° South 165 190 3,000 -871 Descending Chicago Center
Mon 04:43:00 PM 42.4193 -87.8667 180° South  Level FlightAware Approximate

Login

Don't have an account? Register now (free) for customized features, flight alerts, and more!